createdAt,value
2023-04-19T14:58:02.281Z,13.62
2023-04-19T15:03:05.100Z,13.56
2023-04-19T15:08:14.632Z,13.57
2023-04-19T15:13:26.246Z,13.64
2023-04-19T15:18:28.491Z,13.88
2023-04-19T15:23:31.402Z,14.12
2023-04-19T15:28:37.217Z,14.23
2023-04-19T15:33:41.098Z,13.92
2023-04-19T15:38:44.094Z,13.65
2023-04-19T15:43:46.560Z,13.75
2023-04-19T15:48:49.533Z,13.93
2023-04-19T15:53:52.484Z,13.84
2023-04-19T15:58:54.749Z,13.87
2023-04-19T16:03:56.980Z,13.67
2023-04-19T16:08:59.717Z,13.53
2023-04-19T16:14:02.503Z,13.20
2023-04-19T16:19:05.219Z,12.96
2023-04-19T16:24:08.153Z,12.77
2023-04-19T16:29:10.758Z,12.51
2023-04-19T16:34:12.939Z,12.58
2023-04-19T16:39:16.149Z,11.86
2023-04-19T16:44:18.985Z,11.48
2023-04-19T16:49:22.550Z,11.56
2023-04-19T16:54:25.285Z,11.49
2023-04-19T16:59:27.832Z,11.81
2023-04-19T17:04:32.647Z,11.81
2023-04-19T17:09:38.085Z,12.07
2023-04-19T17:14:40.897Z,12.13
2023-04-19T17:19:43.502Z,11.98
2023-04-19T17:24:46.144Z,11.45
2023-04-19T17:29:48.871Z,11.03
2023-04-19T17:34:51.145Z,10.09
2023-04-19T17:39:53.752Z,9.95
2023-04-19T17:44:56.462Z,9.63
2023-04-19T17:50:07.073Z,9.55
2023-04-19T17:55:09.714Z,9.55
2023-04-19T18:00:13.120Z,9.33
2023-04-19T18:05:15.853Z,9.19
2023-04-19T18:10:19.600Z,9.12
2023-04-19T18:15:22.463Z,9.04
2023-04-19T18:20:26.842Z,9.09
2023-04-19T18:25:29.590Z,8.99
2023-04-19T18:30:32.320Z,8.84
2023-04-19T18:35:37.642Z,8.98
2023-04-19T18:40:42.399Z,9.02
2023-04-19T18:45:45.181Z,8.86
2023-04-19T18:50:47.956Z,8.69
2023-04-19T18:55:52.082Z,8.55
2023-04-19T19:00:56.019Z,8.40
2023-04-19T19:05:58.964Z,8.14
2023-04-19T19:16:07.182Z,8.35
2023-04-19T19:21:09.775Z,8.25
2023-04-19T19:26:13.421Z,8.03
2023-04-19T19:31:16.175Z,7.93
2023-04-19T19:36:18.369Z,8.03
2023-04-19T19:46:30.665Z,7.90
2023-04-19T19:56:53.824Z,7.89
2023-04-19T20:02:03.861Z,7.72
2023-04-19T20:12:13.828Z,7.89
2023-04-19T20:17:16.699Z,7.76
2023-04-19T20:22:19.472Z,7.72
2023-04-19T20:27:22.146Z,7.58
2023-04-19T20:32:25.370Z,7.80
2023-04-19T20:37:30.933Z,7.92
2023-04-19T20:42:33.717Z,7.94
2023-04-19T20:47:37.701Z,7.75
2023-04-19T20:52:40.462Z,8.04
2023-04-19T20:57:43.145Z,8.10
2023-04-19T21:02:46.152Z,7.89
2023-04-19T21:07:49.094Z,7.64
2023-04-19T21:12:51.576Z,7.76
2023-04-19T21:17:54.346Z,7.76
2023-04-19T21:22:56.989Z,7.73
2023-04-19T21:27:59.735Z,7.95
2023-04-19T21:33:02.474Z,7.88
2023-04-19T21:38:04.934Z,7.85
2023-04-19T21:43:07.576Z,7.79
2023-04-19T21:48:10.300Z,7.72
2023-04-19T21:53:13.041Z,7.84
2023-04-19T21:58:16.166Z,7.89
2023-04-19T22:03:19.112Z,8.00
2023-04-19T22:08:25.219Z,7.99
2023-04-19T22:13:28.587Z,7.93
2023-04-19T22:18:31.611Z,7.95
2023-04-19T22:23:33.872Z,7.80
2023-04-19T22:28:36.572Z,7.80
2023-04-19T22:33:39.323Z,7.99
2023-04-19T22:38:42.003Z,8.20
2023-04-19T22:43:44.329Z,8.22
2023-04-19T22:48:48.469Z,8.12
2023-04-19T22:53:51.504Z,8.28
2023-04-19T22:58:54.318Z,7.98
2023-04-19T23:03:56.644Z,8.23
2023-04-19T23:09:02.533Z,8.25
2023-04-19T23:14:05.149Z,8.29
2023-04-19T23:19:09.867Z,8.35
2023-04-19T23:24:12.627Z,8.10
2023-04-19T23:29:14.950Z,8.20
2023-04-19T23:34:17.859Z,8.18
2023-04-19T23:39:20.677Z,8.10
2023-04-19T23:44:23.455Z,8.22
2023-04-19T23:49:26.282Z,8.37
2023-04-19T23:54:29.045Z,8.51
2023-04-19T23:59:33.462Z,8.81
